sensor_id;sensor_type;location;lat;lon;timestamp;temperature;humidity
11840;DHT22;5979;50.800;4.904;2023-03-24T00:01:04;12.70;99.90
11840;DHT22;5979;50.800;4.904;2023-03-24T00:03:30;12.70;99.90
11840;DHT22;5979;50.800;4.904;2023-03-24T00:05:58;12.70;99.90
11840;DHT22;5979;50.800;4.904;2023-03-24T00:08:27;12.70;99.90
11840;DHT22;5979;50.800;4.904;2023-03-24T00:10:58;12.70;99.90
11840;DHT22;5979;50.800;4.904;2023-03-24T00:13:24;12.70;99.90
11840;DHT22;5979;50.800;4.904;2023-03-24T00:15:50;12.70;99.90
11840;DHT22;5979;50.800;4.904;2023-03-24T00:18:17;12.70;99.90
11840;DHT22;5979;50.800;4.904;2023-03-24T00:20:47;12.70;99.90
11840;DHT22;5979;50.800;4.904;2023-03-24T00:23:13;12.70;99.90
11840;DHT22;5979;50.800;4.904;2023-03-24T00:25:40;12.70;99.90
11840;DHT22;5979;50.800;4.904;2023-03-24T00:28:06;12.70;99.90
11840;DHT22;5979;50.800;4.904;2023-03-24T00:30:32;12.70;99.90
11840;DHT22;5979;50.800;4.904;2023-03-24T00:33:00;12.70;99.90
11840;DHT22;5979;50.800;4.904;2023-03-24T00:35:27;12.70;99.90
11840;DHT22;5979;50.800;4.904;2023-03-24T00:37:53;12.70;99.90
11840;DHT22;5979;50.800;4.904;2023-03-24T00:40:20;12.70;99.90
11840;DHT22;5979;50.800;4.904;2023-03-24T00:42:47;12.70;99.90
11840;DHT22;5979;50.800;4.904;2023-03-24T00:45:16;12.70;99.90
11840;DHT22;5979;50.800;4.904;2023-03-24T00:47:44;12.70;99.90
11840;DHT22;5979;50.800;4.904;2023-03-24T00:50:16;12.70;99.90
11840;DHT22;5979;50.800;4.904;2023-03-24T00:52:42;12.70;99.90
11840;DHT22;5979;50.800;4.904;2023-03-24T00:55:10;12.80;99.90
11840;DHT22;5979;50.800;4.904;2023-03-24T00:57:41;12.80;99.90
11840;DHT22;5979;50.800;4.904;2023-03-24T01:00:15;12.80;99.90
11840;DHT22;5979;50.800;4.904;2023-03-24T01:02:45;12.80;99.90
11840;DHT22;5979;50.800;4.904;2023-03-24T01:05:11;12.80;99.90
11840;DHT22;5979;50.800;4.904;2023-03-24T01:07:39;12.80;99.90
11840;DHT22;5979;50.800;4.904;2023-03-24T01:10:07;12.80;99.90
11840;DHT22;5979;50.800;4.904;2023-03-24T01:12:34;12.80;99.90
11840;DHT22;5979;50.800;4.904;2023-03-24T01:15:14;12.80;99.90
11840;DHT22;5979;50.800;4.904;2023-03-24T01:17:41;12.90;99.90
11840;DHT22;5979;50.800;4.904;2023-03-24T01:20:07;12.90;99.90
11840;DHT22;5979;50.800;4.904;2023-03-24T01:22:37;12.90;99.90
11840;DHT22;5979;50.800;4.904;2023-03-24T01:25:12;12.80;99.90
11840;DHT22;5979;50.800;4.904;2023-03-24T01:27:40;12.90;99.90
11840;DHT22;5979;50.800;4.904;2023-03-24T01:30:06;12.90;99.90
11840;DHT22;5979;50.800;4.904;2023-03-24T01:32:32;12.90;99.90
11840;DHT22;5979;50.800;4.904;2023-03-24T01:34:58;12.90;99.90
11840;DHT22;5979;50.800;4.904;2023-03-24T01:37:24;12.90;99.90
11840;DHT22;5979;50.800;4.904;2023-03-24T01:39:50;12.90;99.90
11840;DHT22;5979;50.800;4.904;2023-03-24T01:42:18;12.90;99.90
11840;DHT22;5979;50.800;4.904;2023-03-24T01:44:46;12.90;99.90
11840;DHT22;5979;50.800;4.904;2023-03-24T01:47:13;13.00;99.90
11840;DHT22;5979;50.800;4.904;2023-03-24T01:49:59;13.00;99.90
11840;DHT22;5979;50.800;4.904;2023-03-24T01:52:32;13.00;99.90
11840;DHT22;5979;50.800;4.904;2023-03-24T01:55:04;13.10;99.90
11840;DHT22;5979;50.800;4.904;2023-03-24T01:57:38;13.10;99.90
11840;DHT22;5979;50.800;4.904;2023-03-24T02:00:11;13.20;99.90
11840;DHT22;5979;50.800;4.904;2023-03-24T02:02:39;13.20;99.90
11840;DHT22;5979;50.800;4.904;2023-03-24T02:05:09;13.20;99.90
11840;DHT22;5979;50.800;4.904;2023-03-24T02:10:11;13.20;99.90
11840;DHT22;5979;50.800;4.904;2023-03-24T02:12:38;13.20;99.90
11840;DHT22;5979;50.800;4.904;2023-03-24T02:15:05;13.20;99.90
11840;DHT22;5979;50.800;4.904;2023-03-24T02:18:05;13.20;99.90
11840;DHT22;5979;50.800;4.904;2023-03-24T02:41:02;13.00;99.90
11840;DHT22;5979;50.800;4.904;2023-03-24T02:51:21;12.90;99.90
11840;DHT22;5979;50.800;4.904;2023-03-24T02:59:08;12.90;99.90
11840;DHT22;5979;50.800;4.904;2023-03-24T03:04:36;12.80;99.90
11840;DHT22;5979;50.800;4.904;2023-03-24T03:07:04;12.90;99.90
11840;DHT22;5979;50.800;4.904;2023-03-24T03:09:37;12.80;99.90
11840;DHT22;5979;50.800;4.904;2023-03-24T03:12:06;12.70;99.90
11840;DHT22;5979;50.800;4.904;2023-03-24T03:14:54;12.70;99.90
11840;DHT22;5979;50.800;4.904;2023-03-24T03:17:27;12.60;99.90
11840;DHT22;5979;50.800;4.904;2023-03-24T03:20:04;12.60;99.90
11840;DHT22;5979;50.800;4.904;2023-03-24T03:22:50;12.50;99.90
11840;DHT22;5979;50.800;4.904;2023-03-24T03:25:22;12.40;99.90
11840;DHT22;5979;50.800;4.904;2023-03-24T03:27:50;12.30;99.90
11840;DHT22;5979;50.800;4.904;2023-03-24T03:30:22;12.30;99.90
11840;DHT22;5979;50.800;4.904;2023-03-24T03:32:53;12.20;99.90
11840;DHT22;5979;50.800;4.904;2023-03-24T03:35:49;12.10;99.90
11840;DHT22;5979;50.800;4.904;2023-03-24T03:38:36;12.00;99.90
11840;DHT22;5979;50.800;4.904;2023-03-24T03:41:05;11.90;99.90
11840;DHT22;5979;50.800;4.904;2023-03-24T03:43:31;11.80;99.90
11840;DHT22;5979;50.800;4.904;2023-03-24T03:45:58;11.80;99.90
11840;DHT22;5979;50.800;4.904;2023-03-24T03:48:26;11.70;99.90
11840;DHT22;5979;50.800;4.904;2023-03-24T03:50:53;11.60;99.90
11840;DHT22;5979;50.800;4.904;2023-03-24T03:53:22;11.60;99.90
11840;DHT22;5979;50.800;4.904;2023-03-24T03:55:49;11.50;99.90
11840;DHT22;5979;50.800;4.904;2023-03-24T03:58:16;11.40;99.90
11840;DHT22;5979;50.800;4.904;2023-03-24T04:00:42;11.40;99.90
11840;DHT22;5979;50.800;4.904;2023-03-24T04:11:22;11.10;99.90
11840;DHT22;5979;50.800;4.904;2023-03-24T04:19:59;11.00;99.90
11840;DHT22;5979;50.800;4.904;2023-03-24T04:25:50;11.00;99.90
11840;DHT22;5979;50.800;4.904;2023-03-24T04:36:00;10.90;99.90
11840;DHT22;5979;50.800;4.904;2023-03-24T04:38:31;10.90;99.90
11840;DHT22;5979;50.800;4.904;2023-03-24T04:41:01;10.90;99.90
11840;DHT22;5979;50.800;4.904;2023-03-24T04:43:32;10.90;99.90
11840;DHT22;5979;50.800;4.904;2023-03-24T04:46:02;10.90;99.90
11840;DHT22;5979;50.800;4.904;2023-03-24T04:48:28;10.90;99.90
11840;DHT22;5979;50.800;4.904;2023-03-24T04:50:59;10.90;99.90
11840;DHT22;5979;50.800;4.904;2023-03-24T04:53:26;10.90;99.90
11840;DHT22;5979;50.800;4.904;2023-03-24T04:56:13;10.90;99.90
11840;DHT22;5979;50.800;4.904;2023-03-24T04:58:42;10.90;99.90
11840;DHT22;5979;50.800;4.904;2023-03-24T05:01:07;10.90;99.90
11840;DHT22;5979;50.800;4.904;2023-03-24T05:03:33;10.90;99.90
11840;DHT22;5979;50.800;4.904;2023-03-24T05:06:02;10.80;99.90
11840;DHT22;5979;50.800;4.904;2023-03-24T05:08:30;10.80;99.90
11840;DHT22;5979;50.800;4.904;2023-03-24T05:10:56;10.80;99.90
11840;DHT22;5979;50.800;4.904;2023-03-24T05:13:22;10.80;99.90
11840;DHT22;5979;50.800;4.904;2023-03-24T05:15:47;10.80;99.90
11840;DHT22;5979;50.800;4.904;2023-03-24T05:18:13;10.80;99.90
11840;DHT22;5979;50.800;4.904;2023-03-24T05:20:38;10.80;99.90
11840;DHT22;5979;50.800;4.904;2023-03-24T05:23:04;10.80;99.90
11840;DHT22;5979;50.800;4.904;2023-03-24T05:25:30;10.70;99.90
11840;DHT22;5979;50.800;4.904;2023-03-24T05:27:56;10.70;99.90
11840;DHT22;5979;50.800;4.904;2023-03-24T05:30:22;10.70;99.90
11840;DHT22;5979;50.800;4.904;2023-03-24T05:32:48;10.70;99.90
11840;DHT22;5979;50.800;4.904;2023-03-24T05:35:14;10.70;99.90
11840;DHT22;5979;50.800;4.904;2023-03-24T05:37:39;10.70;99.90
11840;DHT22;5979;50.800;4.904;2023-03-24T05:40:06;10.70;99.90
11840;DHT22;5979;50.800;4.904;2023-03-24T05:42:34;10.70;99.90
11840;DHT22;5979;50.800;4.904;2023-03-24T05:44:59;10.60;99.90
11840;DHT22;5979;50.800;4.904;2023-03-24T05:47:25;10.60;99.90
11840;DHT22;5979;50.800;4.904;2023-03-24T05:49:51;10.50;99.90
11840;DHT22;5979;50.800;4.904;2023-03-24T05:52:17;10.50;99.90
11840;DHT22;5979;50.800;4.904;2023-03-24T05:54:45;10.50;99.90
11840;DHT22;5979;50.800;4.904;2023-03-24T05:57:15;10.50;99.90
11840;DHT22;5979;50.800;4.904;2023-03-24T05:59:41;10.50;99.90
11840;DHT22;5979;50.800;4.904;2023-03-24T06:02:07;10.50;99.90
11840;DHT22;5979;50.800;4.904;2023-03-24T06:04:33;10.50;99.90
11840;DHT22;5979;50.800;4.904;2023-03-24T06:06:59;10.50;99.90
11840;DHT22;5979;50.800;4.904;2023-03-24T06:09:26;10.70;99.90
11840;DHT22;5979;50.800;4.904;2023-03-24T06:12:00;10.80;99.90
11840;DHT22;5979;50.800;4.904;2023-03-24T06:14:26;11.00;99.90
11840;DHT22;5979;50.800;4.904;2023-03-24T06:16:52;11.10;99.90
11840;DHT22;5979;50.800;4.904;2023-03-24T06:19:18;11.30;99.90
11840;DHT22;5979;50.800;4.904;2023-03-24T06:21:47;11.30;99.90
11840;DHT22;5979;50.800;4.904;2023-03-24T06:24:16;11.40;99.90
11840;DHT22;5979;50.800;4.904;2023-03-24T06:26:42;11.30;99.90
11840;DHT22;5979;50.800;4.904;2023-03-24T06:29:09;11.20;99.90
11840;DHT22;5979;50.800;4.904;2023-03-24T06:31:35;11.20;99.90
11840;DHT22;5979;50.800;4.904;2023-03-24T06:34:02;11.20;99.90
11840;DHT22;5979;50.800;4.904;2023-03-24T06:36:28;11.30;99.90
11840;DHT22;5979;50.800;4.904;2023-03-24T06:38:54;11.30;99.90
11840;DHT22;5979;50.800;4.904;2023-03-24T06:41:19;11.20;99.90
11840;DHT22;5979;50.800;4.904;2023-03-24T06:43:45;11.10;99.90
11840;DHT22;5979;50.800;4.904;2023-03-24T06:46:11;11.00;99.90
11840;DHT22;5979;50.800;4.904;2023-03-24T06:48:36;11.10;99.90
11840;DHT22;5979;50.800;4.904;2023-03-24T06:51:03;11.20;99.90
11840;DHT22;5979;50.800;4.904;2023-03-24T06:53:29;11.30;99.90
11840;DHT22;5979;50.800;4.904;2023-03-24T06:55:54;11.30;99.90
11840;DHT22;5979;50.800;4.904;2023-03-24T06:58:20;11.30;99.90
11840;DHT22;5979;50.800;4.904;2023-03-24T07:00:46;11.50;99.90
11840;DHT22;5979;50.800;4.904;2023-03-24T07:03:14;11.60;99.90
11840;DHT22;5979;50.800;4.904;2023-03-24T07:05:42;11.80;99.90
11840;DHT22;5979;50.800;4.904;2023-03-24T07:08:08;11.90;99.90
11840;DHT22;5979;50.800;4.904;2023-03-24T07:10:35;11.90;99.90
11840;DHT22;5979;50.800;4.904;2023-03-24T07:13:01;11.90;99.90
11840;DHT22;5979;50.800;4.904;2023-03-24T07:15:28;11.90;99.90
11840;DHT22;5979;50.800;4.904;2023-03-24T07:17:54;11.80;99.90
11840;DHT22;5979;50.800;4.904;2023-03-24T07:20:20;11.70;99.90
11840;DHT22;5979;50.800;4.904;2023-03-24T07:22:46;11.80;99.90
11840;DHT22;5979;50.800;4.904;2023-03-24T07:25:12;11.80;99.90
11840;DHT22;5979;50.800;4.904;2023-03-24T07:27:39;11.90;99.90
11840;DHT22;5979;50.800;4.904;2023-03-24T07:30:06;12.00;99.90
11840;DHT22;5979;50.800;4.904;2023-03-24T07:32:33;12.20;99.90
11840;DHT22;5979;50.800;4.904;2023-03-24T07:35:04;12.30;99.90
11840;DHT22;5979;50.800;4.904;2023-03-24T07:37:30;12.40;99.90
11840;DHT22;5979;50.800;4.904;2023-03-24T07:39:56;12.60;99.90
11840;DHT22;5979;50.800;4.904;2023-03-24T07:42:21;12.80;99.90
11840;DHT22;5979;50.800;4.904;2023-03-24T07:44:47;13.00;99.90
11840;DHT22;5979;50.800;4.904;2023-03-24T07:47:13;13.10;99.90
11840;DHT22;5979;50.800;4.904;2023-03-24T07:49:38;13.20;99.90
11840;DHT22;5979;50.800;4.904;2023-03-24T07:52:04;13.20;99.90
11840;DHT22;5979;50.800;4.904;2023-03-24T07:54:31;13.30;99.90
11840;DHT22;5979;50.800;4.904;2023-03-24T07:56:59;13.30;99.90
11840;DHT22;5979;50.800;4.904;2023-03-24T07:59:25;13.40;99.90
11840;DHT22;5979;50.800;4.904;2023-03-24T08:01:51;13.60;99.90
11840;DHT22;5979;50.800;4.904;2023-03-24T08:04:17;13.80;99.90
11840;DHT22;5979;50.800;4.904;2023-03-24T08:06:43;14.00;99.90
11840;DHT22;5979;50.800;4.904;2023-03-24T08:09:09;14.10;99.90
11840;DHT22;5979;50.800;4.904;2023-03-24T08:11:36;14.10;99.90
11840;DHT22;5979;50.800;4.904;2023-03-24T08:14:02;14.10;99.90
11840;DHT22;5979;50.800;4.904;2023-03-24T08:16:28;14.00;99.90
11840;DHT22;5979;50.800;4.904;2023-03-24T08:18:54;13.90;99.90
11840;DHT22;5979;50.800;4.904;2023-03-24T08:21:23;13.80;99.90
11840;DHT22;5979;50.800;4.904;2023-03-24T08:23:49;13.70;99.90
11840;DHT22;5979;50.800;4.904;2023-03-24T08:26:15;13.70;99.90
11840;DHT22;5979;50.800;4.904;2023-03-24T08:28:40;13.50;99.90
11840;DHT22;5979;50.800;4.904;2023-03-24T08:31:06;13.40;99.90
11840;DHT22;5979;50.800;4.904;2023-03-24T08:33:32;13.40;99.90
11840;DHT22;5979;50.800;4.904;2023-03-24T08:35:58;13.40;99.90
11840;DHT22;5979;50.800;4.904;2023-03-24T08:38:25;13.40;99.90
11840;DHT22;5979;50.800;4.904;2023-03-24T08:40:59;13.40;99.90
11840;DHT22;5979;50.800;4.904;2023-03-24T08:43:29;13.50;99.90
11840;DHT22;5979;50.800;4.904;2023-03-24T08:45:57;13.60;99.90
11840;DHT22;5979;50.800;4.904;2023-03-24T08:48:23;13.70;99.90
11840;DHT22;5979;50.800;4.904;2023-03-24T08:50:48;13.90;99.90
11840;DHT22;5979;50.800;4.904;2023-03-24T08:53:14;14.00;99.90
11840;DHT22;5979;50.800;4.904;2023-03-24T08:55:41;14.20;99.90
11840;DHT22;5979;50.800;4.904;2023-03-24T08:58:16;14.30;99.90
11840;DHT22;5979;50.800;4.904;2023-03-24T09:00:43;14.40;99.90
11840;DHT22;5979;50.800;4.904;2023-03-24T09:03:13;14.50;99.90
11840;DHT22;5979;50.800;4.904;2023-03-24T09:05:39;14.40;99.90
11840;DHT22;5979;50.800;4.904;2023-03-24T09:08:05;14.60;99.90
11840;DHT22;5979;50.800;4.904;2023-03-24T09:10:32;14.60;99.90
11840;DHT22;5979;50.800;4.904;2023-03-24T09:12:58;14.80;99.90
11840;DHT22;5979;50.800;4.904;2023-03-24T09:15:23;15.00;99.90
11840;DHT22;5979;50.800;4.904;2023-03-24T09:17:49;15.00;99.90
11840;DHT22;5979;50.800;4.904;2023-03-24T09:20:15;14.90;99.90
11840;DHT22;5979;50.800;4.904;2023-03-24T09:22:45;14.80;99.90
11840;DHT22;5979;50.800;4.904;2023-03-24T09:25:14;14.70;99.90
11840;DHT22;5979;50.800;4.904;2023-03-24T09:27:40;14.60;99.90
11840;DHT22;5979;50.800;4.904;2023-03-24T09:30:06;14.50;99.90
11840;DHT22;5979;50.800;4.904;2023-03-24T09:32:32;14.50;99.90
11840;DHT22;5979;50.800;4.904;2023-03-24T09:34:58;14.40;99.90
11840;DHT22;5979;50.800;4.904;2023-03-24T09:37:27;14.40;99.90
11840;DHT22;5979;50.800;4.904;2023-03-24T09:39:52;14.60;99.90
11840;DHT22;5979;50.800;4.904;2023-03-24T09:42:23;14.80;99.90
11840;DHT22;5979;50.800;4.904;2023-03-24T09:44:53;14.90;99.90
11840;DHT22;5979;50.800;4.904;2023-03-24T09:49:51;14.90;99.90
11840;DHT22;5979;50.800;4.904;2023-03-24T09:52:22;14.80;99.90
11840;DHT22;5979;50.800;4.904;2023-03-24T09:54:53;14.70;99.90
11840;DHT22;5979;50.800;4.904;2023-03-24T09:59:54;14.70;99.90
11840;DHT22;5979;50.800;4.904;2023-03-24T10:02:21;14.70;99.90
11840;DHT22;5979;50.800;4.904;2023-03-24T10:04:48;14.60;99.90
11840;DHT22;5979;50.800;4.904;2023-03-24T10:07:38;14.60;99.90
11840;DHT22;5979;50.800;4.904;2023-03-24T10:10:33;14.60;99.90
11840;DHT22;5979;50.800;4.904;2023-03-24T10:13:28;14.60;99.90
11840;DHT22;5979;50.800;4.904;2023-03-24T10:16:59;14.70;99.90
11840;DHT22;5979;50.800;4.904;2023-03-24T10:24:55;15.00;99.90
11840;DHT22;5979;50.800;4.904;2023-03-24T10:27:33;14.90;99.90
11840;DHT22;5979;50.800;4.904;2023-03-24T10:30:07;14.90;99.90
11840;DHT22;5979;50.800;4.904;2023-03-24T10:32:36;14.90;99.90
11840;DHT22;5979;50.800;4.904;2023-03-24T10:35:05;14.80;99.90
11840;DHT22;5979;50.800;4.904;2023-03-24T10:37:35;14.80;99.90
11840;DHT22;5979;50.800;4.904;2023-03-24T10:40:04;14.90;99.90
11840;DHT22;5979;50.800;4.904;2023-03-24T10:42:36;15.00;99.90
11840;DHT22;5979;50.800;4.904;2023-03-24T10:45:02;15.10;99.90
11840;DHT22;5979;50.800;4.904;2023-03-24T10:47:29;15.20;99.90
11840;DHT22;5979;50.800;4.904;2023-03-24T10:50:01;15.30;99.90
11840;DHT22;5979;50.800;4.904;2023-03-24T10:52:40;15.50;99.90
11840;DHT22;5979;50.800;4.904;2023-03-24T10:55:06;15.70;99.90
11840;DHT22;5979;50.800;4.904;2023-03-24T10:57:33;15.80;99.90
11840;DHT22;5979;50.800;4.904;2023-03-24T11:00:00;15.90;99.90
11840;DHT22;5979;50.800;4.904;2023-03-24T11:02:30;15.90;99.90
11840;DHT22;5979;50.800;4.904;2023-03-24T11:05:02;15.60;99.90
11840;DHT22;5979;50.800;4.904;2023-03-24T11:07:38;15.70;99.90
11840;DHT22;5979;50.800;4.904;2023-03-24T11:12:39;16.00;99.90
11840;DHT22;5979;50.800;4.904;2023-03-24T11:17:47;16.00;99.90
11840;DHT22;5979;50.800;4.904;2023-03-24T11:20:26;16.10;99.90
11840;DHT22;5979;50.800;4.904;2023-03-24T11:25:29;16.00;99.90
11840;DHT22;5979;50.800;4.904;2023-03-24T11:28:00;15.80;99.90
11840;DHT22;5979;50.800;4.904;2023-03-24T11:30:31;15.60;99.90
11840;DHT22;5979;50.800;4.904;2023-03-24T11:32:58;15.60;99.90
11840;DHT22;5979;50.800;4.904;2023-03-24T11:35:24;15.70;99.90
11840;DHT22;5979;50.800;4.904;2023-03-24T11:37:50;15.80;99.90
11840;DHT22;5979;50.800;4.904;2023-03-24T11:40:20;15.70;99.90
11840;DHT22;5979;50.800;4.904;2023-03-24T11:42:48;15.70;99.90
11840;DHT22;5979;50.800;4.904;2023-03-24T11:48:01;15.80;99.90
11840;DHT22;5979;50.800;4.904;2023-03-24T11:50:32;15.80;99.90
11840;DHT22;5979;50.800;4.904;2023-03-24T11:53:22;15.90;99.90
11840;DHT22;5979;50.800;4.904;2023-03-24T12:02:15;16.20;99.90
11840;DHT22;5979;50.800;4.904;2023-03-24T12:07:30;16.20;99.90
11840;DHT22;5979;50.800;4.904;2023-03-24T12:28:53;16.00;99.90
11840;DHT22;5979;50.800;4.904;2023-03-24T12:39:23;15.10;99.90
11840;DHT22;5979;50.800;4.904;2023-03-24T12:42:06;15.00;99.90
11840;DHT22;5979;50.800;4.904;2023-03-24T12:55:42;15.30;99.90
11840;DHT22;5979;50.800;4.904;2023-03-24T12:58:18;15.30;99.90
11840;DHT22;5979;50.800;4.904;2023-03-24T13:03:46;15.30;99.90
11840;DHT22;5979;50.800;4.904;2023-03-24T13:06:39;15.30;99.90
11840;DHT22;5979;50.800;4.904;2023-03-24T13:15:00;15.30;99.90
11840;DHT22;5979;50.800;4.904;2023-03-24T13:20:15;15.20;99.90
11840;DHT22;5979;50.800;4.904;2023-03-24T13:22:43;15.30;99.90
11840;DHT22;5979;50.800;4.904;2023-03-24T13:25:21;15.40;99.90
11840;DHT22;5979;50.800;4.904;2023-03-24T13:27:52;15.60;99.90
11840;DHT22;5979;50.800;4.904;2023-03-24T13:30:33;15.70;99.90
11840;DHT22;5979;50.800;4.904;2023-03-24T13:33:15;15.80;99.90
11840;DHT22;5979;50.800;4.904;2023-03-24T13:38:58;15.60;99.90
11840;DHT22;5979;50.800;4.904;2023-03-24T13:41:10;15.50;99.90
11840;DHT22;5979;50.800;4.904;2023-03-24T13:43:36;15.40;99.90
11840;DHT22;5979;50.800;4.904;2023-03-24T13:46:12;15.30;99.90
11840;DHT22;5979;50.800;4.904;2023-03-24T13:48:41;15.10;99.90
11840;DHT22;5979;50.800;4.904;2023-03-24T13:51:28;14.90;99.90
11840;DHT22;5979;50.800;4.904;2023-03-24T13:56:32;14.20;99.90
11840;DHT22;5979;50.800;4.904;2023-03-24T14:01:41;13.90;99.90
11840;DHT22;5979;50.800;4.904;2023-03-24T14:04:22;14.00;99.90
11840;DHT22;5979;50.800;4.904;2023-03-24T14:06:54;13.90;99.90
11840;DHT22;5979;50.800;4.904;2023-03-24T14:09:27;13.90;99.90
11840;DHT22;5979;50.800;4.904;2023-03-24T14:14:33;13.80;99.90
11840;DHT22;5979;50.800;4.904;2023-03-24T14:17:12;13.70;99.90
11840;DHT22;5979;50.800;4.904;2023-03-24T14:22:20;13.60;99.90
11840;DHT22;5979;50.800;4.904;2023-03-24T14:25:03;13.40;99.90
11840;DHT22;5979;50.800;4.904;2023-03-24T14:27:41;13.20;99.90
11840;DHT22;5979;50.800;4.904;2023-03-24T14:30:26;13.00;99.90
11840;DHT22;5979;50.800;4.904;2023-03-24T14:32:56;13.00;99.90
11840;DHT22;5979;50.800;4.904;2023-03-24T14:35:39;12.90;99.90
11840;DHT22;5979;50.800;4.904;2023-03-24T14:40:51;12.60;99.90
11840;DHT22;5979;50.800;4.904;2023-03-24T14:43:28;12.60;99.90
11840;DHT22;5979;50.800;4.904;2023-03-24T14:54:38;12.90;99.90
11840;DHT22;5979;50.800;4.904;2023-03-24T14:57:18;12.90;99.90
11840;DHT22;5979;50.800;4.904;2023-03-24T15:02:40;13.30;99.90
11840;DHT22;5979;50.800;4.904;2023-03-24T15:08:14;13.60;99.90
11840;DHT22;5979;50.800;4.904;2023-03-24T15:11:06;13.70;99.90
11840;DHT22;5979;50.800;4.904;2023-03-24T15:13:39;13.70;99.90
11840;DHT22;5979;50.800;4.904;2023-03-24T15:18:40;13.60;99.90
11840;DHT22;5979;50.800;4.904;2023-03-24T15:21:27;13.50;99.90
11840;DHT22;5979;50.800;4.904;2023-03-24T15:23:55;13.50;99.90
11840;DHT22;5979;50.800;4.904;2023-03-24T15:26:22;13.50;99.90
11840;DHT22;5979;50.800;4.904;2023-03-24T15:28:59;13.50;99.90
11840;DHT22;5979;50.800;4.904;2023-03-24T15:31:25;13.50;99.90
11840;DHT22;5979;50.800;4.904;2023-03-24T15:34:05;13.60;99.90
11840;DHT22;5979;50.800;4.904;2023-03-24T15:36:39;13.60;99.90
11840;DHT22;5979;50.800;4.904;2023-03-24T15:39:19;13.60;99.90
11840;DHT22;5979;50.800;4.904;2023-03-24T15:41:46;13.70;99.90
11840;DHT22;5979;50.800;4.904;2023-03-24T15:44:17;13.70;99.90
11840;DHT22;5979;50.800;4.904;2023-03-24T15:46:45;13.60;99.90
11840;DHT22;5979;50.800;4.904;2023-03-24T15:49:23;13.60;99.90
11840;DHT22;5979;50.800;4.904;2023-03-24T15:52:01;13.60;99.90
11840;DHT22;5979;50.800;4.904;2023-03-24T15:54:35;13.60;99.90
11840;DHT22;5979;50.800;4.904;2023-03-24T15:57:13;13.60;99.90
11840;DHT22;5979;50.800;4.904;2023-03-24T16:02:26;13.60;99.90
11840;DHT22;5979;50.800;4.904;2023-03-24T16:05:01;13.60;99.90
11840;DHT22;5979;50.800;4.904;2023-03-24T16:07:31;13.50;99.90
11840;DHT22;5979;50.800;4.904;2023-03-24T16:10:00;13.50;99.90
11840;DHT22;5979;50.800;4.904;2023-03-24T16:12:31;13.50;99.90
11840;DHT22;5979;50.800;4.904;2023-03-24T16:14:57;13.50;99.90
11840;DHT22;5979;50.800;4.904;2023-03-24T16:17:23;13.50;99.90
11840;DHT22;5979;50.800;4.904;2023-03-24T16:19:48;13.40;99.90
11840;DHT22;5979;50.800;4.904;2023-03-24T16:22:14;13.40;99.90
11840;DHT22;5979;50.800;4.904;2023-03-24T16:24:39;13.40;99.90
11840;DHT22;5979;50.800;4.904;2023-03-24T16:27:05;13.30;99.90
11840;DHT22;5979;50.800;4.904;2023-03-24T16:29:31;13.20;99.90
11840;DHT22;5979;50.800;4.904;2023-03-24T16:31:57;13.10;99.90
11840;DHT22;5979;50.800;4.904;2023-03-24T16:34:23;13.10;99.90
11840;DHT22;5979;50.800;4.904;2023-03-24T16:36:51;13.00;99.90
11840;DHT22;5979;50.800;4.904;2023-03-24T16:39:24;13.00;99.90
11840;DHT22;5979;50.800;4.904;2023-03-24T16:41:50;12.90;99.90
11840;DHT22;5979;50.800;4.904;2023-03-24T16:44:16;12.90;99.90
11840;DHT22;5979;50.800;4.904;2023-03-24T16:46:43;12.90;99.90
11840;DHT22;5979;50.800;4.904;2023-03-24T16:49:13;12.80;99.90
11840;DHT22;5979;50.800;4.904;2023-03-24T16:51:39;12.90;99.90
11840;DHT22;5979;50.800;4.904;2023-03-24T16:54:05;12.90;99.90
11840;DHT22;5979;50.800;4.904;2023-03-24T16:56:32;12.90;99.90
11840;DHT22;5979;50.800;4.904;2023-03-24T16:58:58;12.90;99.90
11840;DHT22;5979;50.800;4.904;2023-03-24T17:01:30;12.80;99.90
11840;DHT22;5979;50.800;4.904;2023-03-24T17:04:06;12.90;99.90
11840;DHT22;5979;50.800;4.904;2023-03-24T17:06:38;12.90;99.90
11840;DHT22;5979;50.800;4.904;2023-03-24T17:09:04;12.80;99.90
11840;DHT22;5979;50.800;4.904;2023-03-24T17:11:49;12.80;99.90
11840;DHT22;5979;50.800;4.904;2023-03-24T17:14:15;12.80;99.90
11840;DHT22;5979;50.800;4.904;2023-03-24T17:16:42;12.80;99.90
11840;DHT22;5979;50.800;4.904;2023-03-24T17:19:11;12.80;99.90
11840;DHT22;5979;50.800;4.904;2023-03-24T17:21:47;12.70;99.90
11840;DHT22;5979;50.800;4.904;2023-03-24T17:24:13;12.70;99.90
11840;DHT22;5979;50.800;4.904;2023-03-24T17:26:40;12.70;99.90
11840;DHT22;5979;50.800;4.904;2023-03-24T17:29:08;12.70;99.90
11840;DHT22;5979;50.800;4.904;2023-03-24T17:31:34;12.60;99.90
11840;DHT22;5979;50.800;4.904;2023-03-24T17:34:00;12.60;99.90
11840;DHT22;5979;50.800;4.904;2023-03-24T17:36:25;12.70;99.90
11840;DHT22;5979;50.800;4.904;2023-03-24T17:38:51;12.60;99.90
11840;DHT22;5979;50.800;4.904;2023-03-24T17:41:17;12.60;99.90
11840;DHT22;5979;50.800;4.904;2023-03-24T17:43:44;12.60;99.90
11840;DHT22;5979;50.800;4.904;2023-03-24T17:46:11;12.50;99.90
11840;DHT22;5979;50.800;4.904;2023-03-24T17:48:37;12.30;99.90
11840;DHT22;5979;50.800;4.904;2023-03-24T17:51:03;12.00;99.90
11840;DHT22;5979;50.800;4.904;2023-03-24T17:53:29;11.80;99.90
11840;DHT22;5979;50.800;4.904;2023-03-24T17:55:59;11.70;99.90
11840;DHT22;5979;50.800;4.904;2023-03-24T17:58:26;11.50;99.90
11840;DHT22;5979;50.800;4.904;2023-03-24T18:00:52;11.40;99.90
11840;DHT22;5979;50.800;4.904;2023-03-24T18:03:18;11.20;99.90
11840;DHT22;5979;50.800;4.904;2023-03-24T18:05:44;11.00;99.90
11840;DHT22;5979;50.800;4.904;2023-03-24T18:08:10;10.90;99.90
11840;DHT22;5979;50.800;4.904;2023-03-24T18:10:36;10.90;99.90
11840;DHT22;5979;50.800;4.904;2023-03-24T18:13:03;10.70;99.90
11840;DHT22;5979;50.800;4.904;2023-03-24T18:15:29;10.70;99.90
11840;DHT22;5979;50.800;4.904;2023-03-24T18:17:55;10.70;99.90
11840;DHT22;5979;50.800;4.904;2023-03-24T18:20:21;10.70;99.90
11840;DHT22;5979;50.800;4.904;2023-03-24T18:22:46;10.70;99.90
11840;DHT22;5979;50.800;4.904;2023-03-24T18:25:12;10.60;99.90
11840;DHT22;5979;50.800;4.904;2023-03-24T18:27:39;10.60;99.90
11840;DHT22;5979;50.800;4.904;2023-03-24T18:30:08;10.60;99.90
11840;DHT22;5979;50.800;4.904;2023-03-24T18:32:34;10.60;99.90
11840;DHT22;5979;50.800;4.904;2023-03-24T18:35:04;10.50;99.90
11840;DHT22;5979;50.800;4.904;2023-03-24T18:37:30;10.40;99.90
11840;DHT22;5979;50.800;4.904;2023-03-24T18:39:56;10.40;99.90
11840;DHT22;5979;50.800;4.904;2023-03-24T18:42:22;10.30;99.90
11840;DHT22;5979;50.800;4.904;2023-03-24T18:44:47;10.20;99.90
11840;DHT22;5979;50.800;4.904;2023-03-24T18:47:13;10.20;99.90
11840;DHT22;5979;50.800;4.904;2023-03-24T18:49:40;10.20;99.90
11840;DHT22;5979;50.800;4.904;2023-03-24T18:52:06;10.20;99.90
11840;DHT22;5979;50.800;4.904;2023-03-24T18:54:31;10.10;99.90
11840;DHT22;5979;50.800;4.904;2023-03-24T18:56:57;10.10;99.90
11840;DHT22;5979;50.800;4.904;2023-03-24T18:59:23;10.20;99.90